Time;durP1;ratioP1;P1;durP2;ratioP2;P2;SDS_P1;SDS_P2;PMS_P1;PMS_P2;Temp;Humidity;BMP_temperature;BMP_pressure;BME280_temperature;BME280_humidity;BME280_pressure;Samples;Min_cycle;Max_cycle;Signal;HPM_P1;HPM_P2
2021/03/27 00:00:30;;;;;;;0.15;0.15;;;7.80;99.90;;;;;;4916681;29;20614;-75
2021/03/27 00:03:15;;;;;;;0.28;0.28;;;7.90;99.90;;;;;;4897816;29;20192;-75
2021/03/27 00:05:47;;;;;;;0.40;0.40;;;7.90;99.90;;;;;;4880689;29;20656;-76
2021/03/27 00:08:23;;;;;;;0.20;0.20;;;7.80;99.90;;;;;;4897705;29;20193;-74
2021/03/27 00:11:01;;;;;;;0.17;0.17;;;7.70;99.90;;;;;;4897721;29;20589;-75
2021/03/27 00:13:33;;;;;;;0.28;0.28;;;7.80;99.90;;;;;;4897846;29;20224;-76
2021/03/27 00:16:36;;;;;;;0.20;0.20;;;7.70;99.90;;;;;;4897732;29;20552;-76
2021/03/27 00:19:15;;;;;;;0.30;0.30;;;7.80;99.90;;;;;;4900342;29;20224;-75
2021/03/27 00:21:50;;;;;;;0.20;0.20;;;7.70;99.90;;;;;;4920098;29;20723;-76
2021/03/27 00:24:24;;;;;;;0.35;0.35;;;7.70;99.90;;;;;;4920194;29;20639;-75
2021/03/27 00:26:53;;;;;;;0.10;0.10;;;7.50;99.90;;;;;;4903075;29;20326;-75
2021/03/27 00:29:33;;;;;;;0.20;0.20;;;7.50;99.90;;;;;;4920094;29;20195;-75
2021/03/27 00:32:06;;;;;;;0.20;0.20;;;7.60;99.90;;;;;;4903092;29;20175;-75
2021/03/27 00:34:37;;;;;;;0.20;0.20;;;7.70;99.90;;;;;;4919833;29;20214;-76
2021/03/27 00:37:08;;;;;;;0.10;0.10;;;7.70;99.90;;;;;;4919890;29;20195;-75
2021/03/27 00:39:54;;;;;;;0.20;0.20;;;7.70;99.90;;;;;;4902956;29;20180;-75
2021/03/27 00:42:43;;;;;;;0.25;0.25;;;7.70;99.90;;;;;;4919832;29;20304;-75
2021/03/27 00:45:14;;;;;;;3.10;0.90;;;7.60;99.90;;;;;;4919813;29;20160;-75
2021/03/27 00:47:47;;;;;;;0.35;0.35;;;7.60;99.90;;;;;;4919453;29;20540;-75
2021/03/27 00:50:30;;;;;;;0.30;0.30;;;7.60;99.90;;;;;;4919711;29;20690;-76
2021/03/27 00:53:00;;;;;;;0.10;0.10;;;7.60;99.90;;;;;;4919634;29;20628;-75
2021/03/27 00:55:37;;;;;;;0.30;0.30;;;7.70;99.90;;;;;;4919556;29;20195;-76
2021/03/27 00:58:15;;;;;;;0.20;0.20;;;7.70;99.90;;;;;;4919467;29;20222;-76
2021/03/27 01:00:47;;;;;;;0.52;0.52;;;7.70;99.90;;;;;;4919307;29;20200;-76
2021/03/27 01:03:19;;;;;;;0.22;0.22;;;7.70;99.90;;;;;;4902427;29;20180;-75
2021/03/27 01:05:48;;;;;;;3.95;0.77;;;7.50;99.90;;;;;;4919415;29;20510;-76
2021/03/27 01:08:15;;;;;;;0.20;0.20;;;7.40;99.90;;;;;;4919266;29;20204;-76
2021/03/27 01:11:04;;;;;;;0.30;0.30;;;7.30;99.90;;;;;;4919251;29;20179;-75
2021/03/27 01:13:40;;;;;;;0.40;0.40;;;7.30;99.90;;;;;;4918685;29;20187;-76
2021/03/27 01:16:09;;;;;;;0.55;0.55;;;7.30;99.90;;;;;;4919268;29;20564;-76
2021/03/27 01:18:41;;;;;;;0.20;0.20;;;7.40;99.90;;;;;;4919136;29;20351;-76
2021/03/27 01:21:15;;;;;;;0.57;0.57;;;7.30;99.90;;;;;;4919634;29;20267;-75
2021/03/27 01:23:41;;;;;;;0.10;0.10;;;7.30;99.90;;;;;;4919063;29;20159;-76
2021/03/27 01:26:15;;;;;;;0.20;0.20;;;7.40;99.90;;;;;;4919315;29;20182;-75
2021/03/27 01:28:57;;;;;;;0.20;0.20;;;7.30;99.90;;;;;;4919077;29;20187;-75
2021/03/27 01:31:45;;;;;;;0.30;0.30;;;7.20;99.90;;;;;;4919107;29;20168;-75
2021/03/27 01:34:19;;;;;;;0.45;0.45;;;7.10;99.90;;;;;;4918921;29;20282;-76
2021/03/27 01:37:04;;;;;;;0.40;0.40;;;7.00;99.90;;;;;;4918779;29;20199;-76
2021/03/27 01:39:45;;;;;;;0.35;0.35;;;7.00;99.90;;;;;;4918897;29;20677;-74
2021/03/27 01:42:35;;;;;;;0.35;0.25;;;7.00;99.90;;;;;;4901921;29;20177;-75
2021/03/27 01:45:13;;;;;;;0.63;0.63;;;7.00;99.90;;;;;;4918794;29;20227;-73
2021/03/27 01:48:03;;;;;;;0.20;0.20;;;7.00;99.90;;;;;;4918516;29;20679;-73
2021/03/27 01:50:51;;;;;;;1.17;1.10;;;6.90;99.90;;;;;;4918660;29;20176;-73
2021/03/27 01:53:38;;;;;;;0.10;0.10;;;6.80;99.90;;;;;;4918569;29;20741;-74
2021/03/27 01:56:20;;;;;;;1.13;1.02;;;6.80;99.90;;;;;;4918458;29;20188;-74
2021/03/27 01:59:04;;;;;;;0.10;0.10;;;6.80;99.90;;;;;;4918474;29;20565;-75
2021/03/27 02:01:36;;;;;;;0.20;0.20;;;6.80;99.90;;;;;;4918516;29;20518;-74
2021/03/27 02:04:39;;;;;;;0.10;0.10;;;6.80;99.90;;;;;;4918395;29;20168;-74
2021/03/27 02:07:08;;;;;;;0.20;0.20;;;6.90;99.90;;;;;;4918143;29;20270;-74
2021/03/27 02:09:55;;;;;;;0.40;0.40;;;7.00;99.90;;;;;;4918285;29;20171;-73
2021/03/27 02:12:36;;;;;;;3.63;0.80;;;6.90;99.90;;;;;;4918235;29;20235;-75
2021/03/27 02:15:07;;;;;;;0.75;0.75;;;6.90;99.90;;;;;;4918216;29;20208;-75
2021/03/27 02:17:51;;;;;;;0.28;0.28;;;6.90;99.90;;;;;;4901014;29;20640;-75
2021/03/27 02:20:51;;;;;;;0.20;0.20;;;6.90;99.90;;;;;;4901157;29;20196;-75
2021/03/27 02:24:11;;;;;;;0.25;0.25;;;7.00;99.90;;;;;;4901013;29;20179;-74
2021/03/27 02:26:58;;;;;;;0.15;0.15;;;7.10;99.90;;;;;;4887857;29;20211;-74
2021/03/27 02:29:31;;;;;;;0.22;0.22;;;7.10;99.90;;;;;;4918185;29;20212;-75
2021/03/27 02:32:10;;;;;;;0.10;0.10;;;7.20;99.90;;;;;;4917866;29;20182;-74
2021/03/27 02:35:10;;;;;;;0.10;0.10;;;7.20;99.90;;;;;;4917724;29;20192;-74
2021/03/27 02:37:38;;;;;;;0.38;0.38;;;7.30;99.90;;;;;;4888545;29;20702;-74
2021/03/27 02:40:07;;;;;;;5.40;0.80;;;7.30;99.90;;;;;;4917732;29;20172;-73
2021/03/27 02:42:38;;;;;;;0.50;0.50;;;7.20;99.90;;;;;;4917190;29;20176;-74
2021/03/27 02:45:14;;;;;;;0.20;0.20;;;7.20;99.90;;;;;;4917675;29;20663;-75
2021/03/27 02:47:58;;;;;;;0.20;0.20;;;7.40;99.90;;;;;;4917648;29;20518;-74
2021/03/27 02:50:37;;;;;;;2.47;1.00;;;7.30;99.90;;;;;;4900844;29;20239;-73
2021/03/27 02:53:26;;;;;;;0.40;0.40;;;7.40;99.90;;;;;;4917577;29;20191;-75
2021/03/27 02:56:07;;;;;;;0.77;0.77;;;7.40;99.90;;;;;;4917413;29;20236;-74
2021/03/27 02:58:52;;;;;;;0.20;0.20;;;7.40;99.90;;;;;;4917655;29;20223;-74
2021/03/27 03:01:28;;;;;;;0.40;0.40;;;7.50;99.90;;;;;;4917384;29;20164;-74
2021/03/27 03:04:10;;;;;;;0.22;0.22;;;7.60;99.90;;;;;;4917365;29;20258;-74
2021/03/27 03:06:56;;;;;;;0.95;0.93;;;7.50;99.90;;;;;;4917280;29;20215;-74
2021/03/27 03:09:38;;;;;;;0.10;0.10;;;7.40;99.90;;;;;;4917249;29;20629;-74
2021/03/27 03:12:38;;;;;;;0.20;0.20;;;7.40;99.90;;;;;;4917341;29;20160;-75
2021/03/27 03:15:21;;;;;;;0.70;0.22;;;7.50;99.90;;;;;;4917228;29;20202;-75
2021/03/27 03:18:04;;;;;;;0.55;0.55;;;7.40;99.90;;;;;;4917189;29;20637;-73
2021/03/27 03:20:44;;;;;;;0.20;0.20;;;7.40;99.90;;;;;;4917093;29;20196;-75
2021/03/27 03:23:17;;;;;;;0.10;0.10;;;7.40;99.90;;;;;;4917118;29;20168;-74
2021/03/27 03:26:12;;;;;;;2.75;0.45;;;7.50;99.90;;;;;;4917075;29;20172;-75
2021/03/27 03:28:54;;;;;;;0.20;0.20;;;7.40;99.90;;;;;;4900077;29;20620;-75
2021/03/27 03:31:33;;;;;;;0.22;0.22;;;7.40;99.90;;;;;;4917184;29;20167;-76
2021/03/27 03:34:12;;;;;;;0.20;0.20;;;7.50;99.90;;;;;;4916906;29;20210;-76
2021/03/27 03:37:00;;;;;;;0.13;0.13;;;7.50;99.90;;;;;;4916820;29;20278;-75
2021/03/27 03:39:36;;;;;;;0.25;0.25;;;7.50;99.90;;;;;;4900041;29;20533;-76
2021/03/27 03:42:28;;;;;;;2.63;1.95;;;7.60;99.90;;;;;;4917093;29;20147;-76
2021/03/27 03:45:20;;;;;;;0.10;0.10;;;7.50;99.90;;;;;;4916933;29;20167;-76
2021/03/27 03:47:55;;;;;;;0.10;0.10;;;7.40;99.90;;;;;;4916791;29;20187;-75
2021/03/27 03:50:37;;;;;;;0.30;0.30;;;7.40;99.90;;;;;;4899886;29;20183;-75
2021/03/27 03:53:05;;;;;;;2.65;1.75;;;7.30;99.90;;;;;;4917226;29;20168;-76
2021/03/27 03:55:49;;;;;;;0.10;0.10;;;7.20;99.90;;;;;;4920634;29;20204;-75
2021/03/27 03:58:36;;;;;;;0.52;0.52;;;7.30;99.90;;;;;;4920603;29;20199;-76
2021/03/27 04:01:20;;;;;;;0.10;0.10;;;7.30;99.90;;;;;;4920562;29;20655;-75
2021/03/27 04:04:06;;;;;;;0.20;0.20;;;7.40;99.90;;;;;;4903590;29;20180;-75
2021/03/27 04:06:36;;;;;;;0.20;0.20;;;7.50;99.90;;;;;;4920507;29;20284;-75
2021/03/27 04:09:19;;;;;;;0.35;0.35;;;7.50;99.90;;;;;;4920503;29;20191;-76
2021/03/27 04:12:06;;;;;;;1.15;0.85;;;7.50;99.90;;;;;;4920451;29;20184;-75
2021/03/27 04:14:53;;;;;;;0.30;0.30;;;7.50;99.90;;;;;;4920245;29;20290;-76
2021/03/27 04:17:25;;;;;;;0.55;0.55;;;7.40;99.90;;;;;;4920177;29;20623;-76
2021/03/27 04:20:25;;;;;;;1.45;0.70;;;7.40;99.90;;;;;;4920191;29;20251;-76
2021/03/27 04:23:19;;;;;;;5.20;1.08;;;7.30;99.90;;;;;;4920232;29;20519;-75
2021/03/27 04:26:12;;;;;;;3.85;0.90;;;7.40;99.90;;;;;;4920159;29;20195;-75
2021/03/27 04:28:40;;;;;;;0.20;0.20;;;7.50;99.90;;;;;;4920139;29;20219;-75
2021/03/27 04:31:21;;;;;;;0.20;0.20;;;7.50;99.90;;;;;;4920115;29;20544;-75
2021/03/27 04:34:25;;;;;;;0.20;0.20;;;7.60;99.90;;;;;;4919810;29;20176;-75
2021/03/27 04:37:11;;;;;;;8.48;0.95;;;7.50;99.90;;;;;;4908132;29;20758;-76
2021/03/27 04:39:48;;;;;;;1.00;0.43;;;7.30;99.90;;;;;;4919864;29;20263;-76
2021/03/27 04:42:28;;;;;;;0.63;0.63;;;7.30;99.90;;;;;;4919879;29;20171;-75
2021/03/27 04:45:26;;;;;;;2.17;1.75;;;7.20;99.90;;;;;;4919873;29;20168;-75
2021/03/27 04:48:32;;;;;;;0.63;0.63;;;7.30;99.90;;;;;;4919792;29;20192;-76
2021/03/27 04:51:19;;;;;;;0.20;0.20;;;7.20;99.90;;;;;;4919725;29;20207;-75
2021/03/27 04:53:54;;;;;;;0.57;0.57;;;6.50;99.90;;;;;;4902488;29;20262;-76
2021/03/27 04:56:35;;;;;;;0.20;0.20;;;6.30;99.90;;;;;;4919552;29;20643;-75
2021/03/27 04:59:36;;;;;;;1.35;0.80;;;6.20;99.90;;;;;;4919527;29;20156;-74
2021/03/27 05:02:08;;;;;;;0.52;0.52;;;6.30;99.90;;;;;;4919421;29;20163;-74
2021/03/27 05:05:18;;;;;;;0.20;0.20;;;6.30;99.90;;;;;;4919333;29;20176;-75
2021/03/27 05:08:19;;;;;;;0.20;0.20;;;6.40;99.90;;;;;;4890144;29;20702;-75
2021/03/27 05:11:21;;;;;;;0.20;0.20;;;6.30;99.90;;;;;;4919357;29;20195;-74
2021/03/27 05:14:17;;;;;;;0.10;0.10;;;6.40;99.90;;;;;;4877205;29;20223;-74
2021/03/27 05:16:57;;;;;;;0.10;0.10;;;6.40;99.90;;;;;;4919276;29;20203;-74
2021/03/27 05:19:34;;;;;;;2.00;1.05;;;6.50;99.90;;;;;;4918946;29;20223;-75
2021/03/27 05:22:26;;;;;;;0.40;0.40;;;6.60;99.90;;;;;;4902101;29;20564;-74
2021/03/27 05:25:28;;;;;;;0.10;0.10;;;6.50;99.90;;;;;;4918928;29;20199;-75
2021/03/27 05:28:27;;;;;;;0.20;0.20;;;6.50;99.90;;;;;;4918985;29;20620;-74
2021/03/27 05:30:59;;;;;;;0.50;0.25;;;6.50;99.90;;;;;;4919030;29;20176;-75
2021/03/27 05:33:45;;;;;;;0.20;0.20;;;6.50;99.90;;;;;;4919091;29;20176;-74
2021/03/27 05:36:30;;;;;;;0.20;0.20;;;6.40;99.90;;;;;;4918812;29;20184;-75
2021/03/27 05:39:25;;;;;;;0.68;0.68;;;6.30;99.90;;;;;;4918679;29;20171;-75
2021/03/27 05:42:29;;;;;;;0.20;0.20;;;6.30;99.90;;;;;;4918795;29;20171;-75
2021/03/27 05:45:19;;;;;;;0.20;0.20;;;6.30;99.90;;;;;;4901725;29;20207;-75
2021/03/27 05:48:09;;;;;;;0.20;0.20;;;6.20;99.90;;;;;;4918791;29;20282;-75
2021/03/27 05:50:56;;;;;;;0.20;0.20;;;6.10;99.90;;;;;;4918676;29;20190;-74
2021/03/27 05:53:54;;;;;;;0.20;0.20;;;6.10;99.90;;;;;;4901496;29;20214;-75
2021/03/27 05:56:57;;;;;;;0.20;0.20;;;6.10;99.90;;;;;;4872110;29;20199;-75
2021/03/27 05:59:51;;;;;;;1.35;0.90;;;6.00;99.90;;;;;;4918515;29;20525;-74
2021/03/27 06:02:40;;;;;;;0.20;0.20;;;5.90;99.90;;;;;;4918383;29;20191;-74
2021/03/27 06:05:14;;;;;;;0.63;0.63;;;6.00;99.90;;;;;;4918307;29;20243;-75
2021/03/27 06:08:01;;;;;;;0.20;0.20;;;6.10;99.90;;;;;;4918221;29;20223;-76
2021/03/27 06:10:50;;;;;;;0.20;0.20;;;6.10;99.90;;;;;;4918207;29;20183;-75
2021/03/27 06:13:52;;;;;;;0.20;0.20;;;6.10;99.90;;;;;;4918182;29;20624;-75
2021/03/27 06:16:35;;;;;;;0.10;0.10;;;6.30;99.90;;;;;;4900799;29;20195;-75
2021/03/27 06:19:29;;;;;;;0.30;0.30;;;6.30;99.90;;;;;;4917937;29;20215;-75
2021/03/27 06:22:32;;;;;;;0.20;0.20;;;6.20;99.90;;;;;;4909238;29;20239;-77
2021/03/27 06:25:19;;;;;;;1.27;0.40;;;6.40;99.90;;;;;;4915778;29;20176;-77
2021/03/27 06:28:11;;;;;;;0.52;0.52;;;6.50;99.90;;;;;;4917490;29;20192;-78
2021/03/27 06:30:58;;;;;;;0.25;0.25;;;6.50;99.90;;;;;;4916563;29;20647;-78
2021/03/27 06:33:45;;;;;;;0.82;0.68;;;6.60;99.90;;;;;;4916401;29;20630;-76
2021/03/27 06:36:32;;;;;;;0.30;0.30;;;7.00;99.90;;;;;;4898956;29;20560;-77
2021/03/27 06:39:00;;;;;;;0.20;0.20;;;7.10;99.90;;;;;;4911118;29;20179;-76
2021/03/27 06:41:38;;;;;;;0.17;0.17;;;7.20;99.90;;;;;;4900545;29;20707;-75
2021/03/27 06:44:41;;;;;;;0.32;0.32;;;7.10;99.90;;;;;;4899168;29;20210;-77
2021/03/27 06:47:09;;;;;;;0.93;0.90;;;7.20;99.90;;;;;;4916827;29;20547;-77
2021/03/27 06:49:42;;;;;;;0.40;0.40;;;7.10;99.90;;;;;;4917238;29;20333;-77
2021/03/27 06:52:35;;;;;;;1.67;0.82;;;7.10;99.90;;;;;;4916793;29;20234;-73
2021/03/27 06:55:28;;;;;;;0.20;0.20;;;7.20;99.90;;;;;;4916599;29;20675;-76
2021/03/27 06:58:15;;;;;;;6.22;2.05;;;7.40;99.90;;;;;;4916784;29;20192;-76
2021/03/27 07:01:11;;;;;;;0.30;0.30;;;7.30;99.90;;;;;;4917122;29;20172;-76
2021/03/27 07:04:18;;;;;;;0.10;0.10;;;7.30;99.90;;;;;;4916486;29;20194;-76
2021/03/27 07:07:21;;;;;;;0.10;0.10;;;7.30;99.90;;;;;;4885038;29;20215;-77
2021/03/27 07:10:11;;;;;;;3.40;0.98;;;7.20;99.90;;;;;;4914523;29;20191;-77
2021/03/27 07:13:15;;;;;;;0.60;0.60;;;7.10;99.90;;;;;;4915200;29;20204;-78
2021/03/27 07:15:53;;;;;;;0.20;0.20;;;7.20;99.90;;;;;;4915688;29;20301;-76
2021/03/27 07:18:46;;;;;;;1.13;0.52;;;7.30;99.90;;;;;;4907069;29;20301;-77
2021/03/27 07:21:35;;;;;;;0.20;0.20;;;7.60;99.90;;;;;;4898805;29;20191;-76
2021/03/27 07:24:15;;;;;;;0.30;0.30;;;7.70;99.90;;;;;;4916266;29;20586;-76
2021/03/27 07:26:59;;;;;;;0.20;0.20;;;7.70;99.90;;;;;;4916140;29;20278;-77
2021/03/27 07:29:39;;;;;;;0.13;0.13;;;7.80;99.90;;;;;;4916021;29;20187;-77
2021/03/27 07:32:34;;;;;;;0.85;0.75;;;7.90;99.90;;;;;;4916600;29;20183;-76
2021/03/27 07:35:22;;;;;;;0.68;0.68;;;8.00;99.90;;;;;;4916399;29;20286;-77
2021/03/27 07:38:25;;;;;;;0.73;0.73;;;8.10;99.90;;;;;;4916245;29;20556;-78
2021/03/27 07:41:09;;;;;;;0.50;0.50;;;8.20;99.90;;;;;;4916110;29;20178;-77
2021/03/27 07:43:51;;;;;;;16.08;1.20;;;8.10;99.90;;;;;;4916355;29;20187;-75
2021/03/27 07:46:35;;;;;;;0.80;0.70;;;8.20;99.90;;;;;;4903150;29;20647;-75
2021/03/27 07:49:26;;;;;;;0.20;0.20;;;8.10;99.90;;;;;;4915959;29;20180;-77
2021/03/27 07:52:19;;;;;;;1.48;1.38;;;8.20;99.90;;;;;;4915329;29;20183;-77
2021/03/27 07:55:05;;;;;;;0.22;0.22;;;8.20;99.90;;;;;;4915971;29;20306;-76
2021/03/27 07:57:55;;;;;;;0.30;0.30;;;8.30;99.90;;;;;;4872753;29;20754;-77
2021/03/27 08:00:52;;;;;;;0.20;0.20;;;8.20;99.90;;;;;;4916097;29;20628;-77
2021/03/27 08:03:26;;;;;;;0.45;0.45;;;8.30;99.90;;;;;;4907480;29;20184;-87
2021/03/27 08:06:33;;;;;;;1.50;0.75;;;8.40;99.90;;;;;;4896416;29;20179;-77
2021/03/27 08:09:36;;;;;;;2.92;1.88;;;8.50;99.90;;;;;;4820329;29;20290;-76
2021/03/27 08:12:27;;;;;;;0.28;0.28;;;8.70;99.90;;;;;;4898700;29;20176;-79
2021/03/27 08:15:17;;;;;;;0.22;0.22;;;8.90;99.90;;;;;;4913709;29;20207;-75
2021/03/27 08:18:08;;;;;;;0.30;0.30;;;9.10;99.90;;;;;;4899580;29;20192;-76
2021/03/27 08:21:01;;;;;;;4.45;0.68;;;9.10;99.90;;;;;;4915861;29;20192;-77
2021/03/27 08:23:53;;;;;;;0.13;0.13;;;9.20;99.90;;;;;;4915651;29;20628;-77
2021/03/27 08:27:03;;;;;;;1.10;0.30;;;9.40;99.90;;;;;;4915310;29;20168;-76
2021/03/27 08:29:43;;;;;;;0.17;0.17;;;9.50;99.90;;;;;;4915304;29;20258;-77
2021/03/27 08:32:27;;;;;;;0.63;0.63;;;9.50;99.90;;;;;;4915871;29;20164;-74
2021/03/27 08:35:16;;;;;;;2.45;1.05;;;9.50;99.90;;;;;;4914581;29;20735;-76
2021/03/27 08:37:59;;;;;;;1.45;1.23;;;9.60;99.90;;;;;;4915769;29;20192;-77
2021/03/27 08:41:11;;;;;;;0.60;0.60;;;9.50;99.90;;;;;;4916912;29;20176;-73
2021/03/27 08:44:11;;;;;;;0.63;0.63;;;9.60;99.90;;;;;;4902481;29;20176;-77
2021/03/27 08:47:00;;;;;;;32.22;1.10;;;9.80;99.90;;;;;;4917737;29;20686;-79
2021/03/27 08:49:29;;;;;;;0.30;0.30;;;9.90;99.90;;;;;;4918847;29;20250;-73
2021/03/27 08:52:09;;;;;;;0.30;0.30;;;9.90;99.90;;;;;;4918885;29;20220;-74
2021/03/27 08:54:47;;;;;;;0.28;0.28;;;9.90;99.90;;;;;;4902474;29;20311;-73
2021/03/27 08:57:50;;;;;;;2.85;0.73;;;10.00;99.90;;;;;;4919743;29;20231;-73
2021/03/27 09:00:28;;;;;;;0.43;0.43;;;10.00;99.90;;;;;;4902432;29;20183;-74
2021/03/27 09:03:31;;;;;;;1.27;0.85;;;9.90;99.90;;;;;;4902379;29;20200;-73
2021/03/27 09:05:59;;;;;;;0.20;0.20;;;9.80;99.90;;;;;;4919358;29;20263;-73
2021/03/27 09:08:43;;;;;;;0.20;0.20;;;9.80;99.90;;;;;;4919182;29;20594;-73
2021/03/27 09:11:12;;;;;;;0.20;0.20;;;9.70;99.90;;;;;;4901981;29;20179;-73
2021/03/27 09:13:47;;;;;;;13.40;1.67;;;9.60;99.90;;;;;;4919249;29;20176;-73
2021/03/27 09:16:27;;;;;;;2.00;0.85;;;9.50;99.90;;;;;;4902027;29;20227;-73
2021/03/27 09:19:04;;;;;;;0.30;0.30;;;9.50;99.90;;;;;;4919157;29;20215;-73
2021/03/27 09:21:42;;;;;;;0.57;0.57;;;9.60;99.90;;;;;;4918626;29;20172;-74
2021/03/27 09:24:32;;;;;;;0.38;0.38;;;9.70;99.90;;;;;;4918653;29;20602;-73
2021/03/27 09:27:19;;;;;;;0.38;0.38;;;9.80;99.90;;;;;;4918767;29;20574;-73
2021/03/27 09:29:57;;;;;;;6.55;0.82;;;9.80;99.90;;;;;;4918936;29;20211;-73
2021/03/27 09:32:47;;;;;;;0.25;0.25;;;9.60;99.90;;;;;;4901858;29;20176;-75
2021/03/27 09:35:44;;;;;;;0.50;0.50;;;9.70;99.90;;;;;;4918795;29;20286;-74
2021/03/27 09:38:35;;;;;;;0.30;0.30;;;9.50;99.90;;;;;;4879719;29;20207;-74
2021/03/27 09:41:09;;;;;;;0.15;0.15;;;9.60;99.90;;;;;;4918502;29;20180;-75
2021/03/27 09:43:57;;;;;;;0.30;0.30;;;9.70;99.90;;;;;;4901614;29;20635;-75
2021/03/27 09:46:59;;;;;;;0.73;0.73;;;9.80;99.90;;;;;;4918174;29;20186;-75
2021/03/27 09:49:51;;;;;;;1.25;0.95;;;9.70;99.90;;;;;;4918587;29;20183;-75
2021/03/27 09:52:40;;;;;;;0.40;0.40;;;9.70;99.90;;;;;;4918223;29;20179;-75
2021/03/27 09:55:21;;;;;;;0.35;0.35;;;9.90;99.90;;;;;;4901260;29;20741;-75
2021/03/27 09:58:14;;;;;;;0.25;0.25;;;10.30;99.90;;;;;;4918362;29;20292;-75
2021/03/27 10:01:24;;;;;;;0.30;0.30;;;10.30;99.90;;;;;;4918137;29;20182;-75
2021/03/27 10:03:58;;;;;;;0.20;0.20;;;10.20;99.90;;;;;;4841507;29;20287;-75
2021/03/27 10:06:41;;;;;;;0.90;0.77;;;10.20;99.90;;;;;;4906386;29;20644;-75
2021/03/27 10:09:19;;;;;;;0.50;0.50;;;10.10;99.90;;;;;;4917995;29;20628;-75
2021/03/27 10:11:52;;;;;;;2.15;0.55;;;10.00;99.90;;;;;;4917961;29;20213;-75
2021/03/27 10:14:26;;;;;;;1.67;1.58;;;9.90;99.90;;;;;;4917751;29;20655;-75
2021/03/27 10:16:54;;;;;;;0.40;0.40;;;9.60;99.90;;;;;;4900714;29;20219;-75
2021/03/27 10:19:28;;;;;;;0.45;0.45;;;9.50;99.90;;;;;;4917312;29;20219;-75
2021/03/27 10:22:05;;;;;;;0.20;0.20;;;9.50;99.90;;;;;;4917660;29;20167;-75
2021/03/27 10:24:48;;;;;;;0.20;0.20;;;9.70;99.90;;;;;;4900635;29;20175;-75
2021/03/27 10:27:47;;;;;;;5.25;1.08;;;10.00;99.90;;;;;;4917795;29;20192;-75
2021/03/27 10:30:19;;;;;;;0.40;0.40;;;10.40;99.90;;;;;;4900331;29;20191;-75
2021/03/27 10:32:53;;;;;;;2.90;1.05;;;10.60;99.90;;;;;;4917892;29;20179;-75
2021/03/27 10:35:42;;;;;;;0.47;0.47;;;10.70;99.90;;;;;;4917567;29;20199;-75
2021/03/27 10:38:23;;;;;;;1.05;0.75;;;10.70;99.90;;;;;;4917508;29;20223;-74
2021/03/27 10:40:57;;;;;;;0.60;0.60;;;10.60;99.90;;;;;;4900620;29;20176;-75
2021/03/27 10:43:43;;;;;;;1.30;0.30;;;10.50;99.90;;;;;;4917582;29;20171;-74
2021/03/27 10:46:11;;;;;;;1.20;0.80;;;10.60;99.90;;;;;;4917407;29;20262;-75
2021/03/27 10:48:55;;;;;;;5.57;2.20;;;10.90;99.90;;;;;;4917514;29;20525;-75
2021/03/27 10:51:53;;;;;;;0.80;0.80;;;11.30;99.90;;;;;;4900303;29;20183;-75
2021/03/27 10:54:38;;;;;;;0.35;0.35;;;11.40;99.90;;;;;;4916966;29;20203;-75
2021/03/27 10:57:28;;;;;;;0.60;0.60;;;11.40;99.90;;;;;;4916803;29;20271;-76
2021/03/27 11:00:02;;;;;;;3.55;0.38;;;11.30;99.90;;;;;;4917195;29;20180;-75
2021/03/27 11:02:49;;;;;;;0.35;0.35;;;11.30;99.90;;;;;;4916891;29;20639;-76
2021/03/27 11:05:22;;;;;;;0.65;0.65;;;11.20;99.90;;;;;;4917233;29;20164;-76
2021/03/27 11:07:54;;;;;;;0.30;0.30;;;11.20;99.90;;;;;;4917071;29;20188;-74
2021/03/27 11:10:57;;;;;;;0.30;0.30;;;11.00;99.90;;;;;;4916708;29;20539;-74
2021/03/27 11:13:53;;;;;;;0.40;0.40;;;10.90;99.90;;;;;;4916839;29;20175;-74
2021/03/27 11:17:10;;;;;;;0.20;0.20;;;10.80;99.90;;;;;;4916766;29;20243;-73
2021/03/27 11:19:50;;;;;;;0.20;0.20;;;10.90;99.90;;;;;;4874809;29;20231;-73
2021/03/27 11:22:37;;;;;;;0.65;0.55;;;11.00;99.90;;;;;;4916926;29;20164;-73
2021/03/27 11:25:39;;;;;;;1.88;0.40;;;10.90;99.90;;;;;;4916945;29;20167;-74
2021/03/27 11:28:14;;;;;;;1.23;0.60;;;10.90;99.90;;;;;;4899687;29;20199;-74
2021/03/27 11:30:48;;;;;;;0.22;0.22;;;10.90;99.90;;;;;;4916632;29;20167;-73
2021/03/27 11:33:33;;;;;;;0.35;0.35;;;10.90;99.90;;;;;;4916565;29;20199;-74
2021/03/27 11:36:09;;;;;;;0.40;0.40;;;10.90;99.90;;;;;;4897246;29;20775;-75
2021/03/27 11:38:43;;;;;;;0.68;0.68;;;11.10;99.90;;;;;;4915497;29;20196;-75
2021/03/27 11:41:23;;;;;;;2.72;1.00;;;11.10;99.90;;;;;;4916522;29;20251;-76
2021/03/27 11:44:20;;;;;;;14.10;0.90;;;11.40;99.90;;;;;;4916365;29;20635;-75
2021/03/27 11:46:56;;;;;;;1.25;0.43;;;11.50;99.90;;;;;;4899349;29;20243;-75
2021/03/27 11:49:47;;;;;;;0.22;0.22;;;11.60;98.60;;;;;;4916657;29;20211;-75
2021/03/27 11:52:19;;;;;;;0.40;0.40;;;11.70;98.30;;;;;;4899657;29;20175;-75
2021/03/27 11:55:19;;;;;;;4.47;0.65;;;11.70;96.80;;;;;;4916538;29;20203;-75
2021/03/27 11:57:50;;;;;;;0.20;0.20;;;11.60;96.90;;;;;;4916252;29;20278;-76
2021/03/27 12:03:21;;;;;;;0.20;0.20;;;11.10;97.80;;;;;;4916503;29;20536;-75
2021/03/27 12:05:56;;;;;;;0.20;0.20;;;11.10;98.40;;;;;;4915841;29;20235;-77
2021/03/27 12:08:54;;;;;;;3.03;0.50;;;11.20;98.20;;;;;;4915928;29;20203;-76
2021/03/27 12:11:43;;;;;;;0.30;0.30;;;11.30;98.60;;;;;;4899159;29;20239;-76
2021/03/27 12:14:15;;;;;;;0.60;0.60;;;11.50;97.30;;;;;;4892498;29;20180;-75
2021/03/27 12:17:19;;;;;;;1.00;0.90;;;11.60;95.90;;;;;;4918980;29;20184;-75
2021/03/27 12:19:53;;;;;;;0.17;0.17;;;11.70;95.50;;;;;;4919125;29;20313;-75
2021/03/27 12:22:54;;;;;;;0.38;0.38;;;11.90;95.50;;;;;;4919887;29;20519;-76
2021/03/27 12:25:46;;;;;;;3.03;1.27;;;12.10;95.90;;;;;;4902960;29;20183;-75
2021/03/27 12:28:49;;;;;;;0.25;0.25;;;12.10;93.80;;;;;;4903384;29;20200;-75
2021/03/27 12:31:45;;;;;;;0.47;0.47;;;12.10;94.70;;;;;;4919912;29;20527;-76
2021/03/27 12:34:15;;;;;;;0.30;0.30;;;12.20;95.10;;;;;;4919864;29;20531;-76
2021/03/27 12:36:50;;;;;;;1.85;0.57;;;12.10;94.80;;;;;;4919357;29;20268;-75
2021/03/27 12:39:52;;;;;;;0.57;0.57;;;11.90;95.20;;;;;;4919832;29;20170;-76
2021/03/27 12:42:45;;;;;;;0.20;0.20;;;11.90;95.20;;;;;;4919677;29;20172;-75
2021/03/27 12:45:25;;;;;;;0.20;0.20;;;11.60;95.50;;;;;;4919700;29;20160;-75
2021/03/27 12:48:17;;;;;;;1.63;0.88;;;11.50;96.20;;;;;;4919264;29;20201;-75
2021/03/27 12:51:25;;;;;;;0.68;0.68;;;11.60;96.10;;;;;;4919229;29;20172;-76
2021/03/27 12:54:21;;;;;;;0.63;0.52;;;11.60;95.90;;;;;;4919153;29;20204;-75
2021/03/27 12:57:06;;;;;;;24.48;1.20;;;11.80;96.50;;;;;;4919281;29;20204;-75
2021/03/27 12:59:52;;;;;;;0.30;0.30;;;11.90;95.40;;;;;;4919267;29;20255;-75
2021/03/27 13:02:28;;;;;;;0.20;0.20;;;12.00;95.70;;;;;;4919307;29;20180;-75
2021/03/27 13:05:18;;;;;;;0.30;0.30;;;12.20;95.80;;;;;;4919058;29;20168;-75
2021/03/27 13:07:55;;;;;;;0.47;0.47;;;12.30;94.60;;;;;;4919060;29;20275;-74
2021/03/27 13:10:46;;;;;;;0.22;0.22;;;12.40;95.20;;;;;;4919240;29;20183;-74
2021/03/27 13:13:33;;;;;;;0.38;0.38;;;12.30;95.50;;;;;;4919148;29;20164;-75
2021/03/27 13:16:25;;;;;;;0.50;0.50;;;12.40;95.50;;;;;;4918318;29;20291;-74
2021/03/27 13:19:27;;;;;;;0.73;0.40;;;12.30;95.80;;;;;;4918674;29;20219;-76
2021/03/27 13:22:07;;;;;;;0.32;0.32;;;12.30;95.80;;;;;;4918616;29;20508;-75
2021/03/27 13:24:32;;;;;;;0.20;0.20;;;12.10;96.30;;;;;;4918605;29;20168;-76
2021/03/27 13:27:23;;;;;;;1.00;1.00;;;11.90;96.30;;;;;;4917933;29;20698;-74
2021/03/27 13:29:52;;;;;;;0.30;0.30;;;11.90;96.00;;;;;;4918310;29;20183;-73
2021/03/27 13:32:25;;;;;;;0.30;0.30;;;12.10;95.20;;;;;;4918627;29;20178;-75
2021/03/27 13:35:14;;;;;;;3.28;1.20;;;12.30;95.40;;;;;;4918447;29;20200;-75
2021/03/27 13:37:50;;;;;;;1.35;0.32;;;12.60;95.20;;;;;;4918426;29;20203;-78
2021/03/27 13:40:24;;;;;;;0.20;0.20;;;12.60;95.50;;;;;;4918560;29;20190;-79
2021/03/27 13:43:07;;;;;;;0.30;0.30;;;12.60;95.20;;;;;;4918602;29;20257;-74
2021/03/27 13:46:17;;;;;;;0.20;0.20;;;12.50;94.20;;;;;;4901875;29;20172;-75
2021/03/27 13:49:03;;;;;;;0.75;0.75;;;12.50;94.60;;;;;;4888740;29;20199;-75
2021/03/27 13:51:41;;;;;;;0.40;0.40;;;12.50;94.90;;;;;;4918062;29;20164;-75
2021/03/27 13:54:25;;;;;;;0.40;0.40;;;12.50;94.50;;;;;;4917005;29;20186;-76
2021/03/27 13:56:50;;;;;;;0.55;0.55;;;12.50;95.00;;;;;;4917054;29;20207;-75
2021/03/27 13:59:19;;;;;;;1.85;1.25;;;12.50;95.30;;;;;;4900860;29;20235;-75
2021/03/27 14:02:22;;;;;;;1.73;1.33;;;12.70;94.40;;;;;;4916110;29;20540;-75
2021/03/27 14:05:25;;;;;;;0.28;0.28;;;12.70;94.50;;;;;;4917955;29;20187;-75
2021/03/27 14:08:12;;;;;;;0.38;0.38;;;12.70;93.80;;;;;;4914499;29;20207;-75
2021/03/27 14:11:05;;;;;;;0.30;0.30;;;12.70;93.30;;;;;;4910448;29;20238;-74
2021/03/27 14:13:58;;;;;;;0.20;0.20;;;12.50;92.30;;;;;;4914041;29;20203;-76
2021/03/27 14:16:35;;;;;;;0.20;0.20;;;12.40;92.10;;;;;;4917715;29;20701;-75
2021/03/27 14:19:06;;;;;;;0.35;0.35;;;12.30;92.60;;;;;;4917243;29;20545;-75
2021/03/27 14:21:38;;;;;;;0.40;0.40;;;12.30;93.00;;;;;;4917378;29;20179;-75
2021/03/27 14:24:28;;;;;;;1.75;1.08;;;12.30;92.80;;;;;;4917789;29;20207;-75
2021/03/27 14:27:14;;;;;;;1.25;1.15;;;12.20;93.40;;;;;;4900662;29;20607;-75